Time;durP1;ratioP1;P1;durP2;ratioP2;P2;SDS_P1;SDS_P2;PMS_P1;PMS_P2;Temp;Humidity;BMP_temperature;BMP_pressure;BME280_temperature;BME280_humidity;BME280_pressure;Samples;Min_cycle;Max_cycle;Signal;HPM_P1;HPM_P2
2021/06/15 00:02:02;;;;;;;4.37;3.87;;;15.80;99.90;;;;;;5045848;28;20543;-70
2021/06/15 00:04:29;;;;;;;4.50;3.60;;;15.80;99.90;;;;;;5052943;28;20470;-70
2021/06/15 00:06:55;;;;;;;5.77;4.73;;;15.80;99.90;;;;;;5046520;28;20502;-70
2021/06/15 00:09:22;;;;;;;5.00;4.00;;;15.70;99.90;;;;;;5053560;28;20455;-70
2021/06/15 00:11:49;;;;;;;4.77;4.00;;;15.70;99.90;;;;;;5047339;28;20490;-70
2021/06/15 00:14:17;;;;;;;7.90;4.30;;;15.70;99.90;;;;;;5047670;28;20467;-70
2021/06/15 00:16:44;;;;;;;4.73;4.23;;;15.60;99.90;;;;;;5048847;28;21043;-70
2021/06/15 00:19:10;;;;;;;5.80;4.50;;;15.60;99.90;;;;;;5050292;28;20464;-70
2021/06/15 00:21:37;;;;;;;5.10;4.07;;;15.50;99.90;;;;;;5047866;28;20459;-70
2021/06/15 00:24:05;;;;;;;5.20;4.07;;;15.50;99.90;;;;;;5050189;28;20839;-70
2021/06/15 00:26:31;;;;;;;5.00;4.50;;;15.50;99.90;;;;;;5050486;28;20479;-70
2021/06/15 00:28:58;;;;;;;4.80;3.87;;;15.40;99.90;;;;;;5050008;28;20455;-70
2021/06/15 00:31:27;;;;;;;5.20;4.40;;;15.40;99.90;;;;;;5050233;28;21024;-70
2021/06/15 00:33:54;;;;;;;7.30;4.10;;;15.30;99.90;;;;;;5050021;28;20460;-69
2021/06/15 00:36:21;;;;;;;5.37;4.70;;;15.30;99.90;;;;;;5050630;28;20494;-70
2021/06/15 00:38:47;;;;;;;5.20;3.67;;;15.30;99.90;;;;;;5050212;28;20467;-70
2021/06/15 00:41:45;;;;;;;4.63;3.90;;;15.20;99.90;;;;;;5049912;28;20480;-70
2021/06/15 00:44:12;;;;;;;5.10;4.60;;;15.20;99.90;;;;;;5049660;28;20467;-70
2021/06/15 00:46:41;;;;;;;6.80;4.27;;;15.20;99.90;;;;;;5050009;28;20511;-70
2021/06/15 00:49:08;;;;;;;5.10;4.27;;;15.20;99.90;;;;;;5050229;28;20459;-70
2021/06/15 00:51:35;;;;;;;4.60;4.13;;;15.10;99.90;;;;;;5049604;28;20487;-70
2021/06/15 00:54:02;;;;;;;4.30;3.90;;;15.10;99.90;;;;;;5050178;28;20466;-70
2021/06/15 00:56:29;;;;;;;4.93;4.43;;;15.10;99.90;;;;;;5050121;28;20483;-70
2021/06/15 00:58:56;;;;;;;4.00;3.70;;;15.10;99.90;;;;;;5049898;28;20819;-70
2021/06/15 01:01:23;;;;;;;5.20;4.33;;;15.00;99.90;;;;;;5050023;28;20459;-70
2021/06/15 01:03:52;;;;;;;5.37;4.30;;;15.00;99.90;;;;;;5049794;28;20467;-70
2021/06/15 01:06:29;;;;;;;4.70;4.30;;;15.00;99.90;;;;;;5049910;28;20483;-70
2021/06/15 01:09:02;;;;;;;4.93;4.00;;;15.10;99.90;;;;;;5049797;28;20894;-70
2021/06/15 01:11:41;;;;;;;4.53;4.13;;;15.00;99.90;;;;;;5049867;28;20483;-70
2021/06/15 01:14:16;;;;;;;4.63;4.23;;;14.90;99.90;;;;;;5049912;28;20465;-70
2021/06/15 01:16:50;;;;;;;9.47;5.33;;;14.90;99.90;;;;;;5049732;28;20560;-70
2021/06/15 01:19:29;;;;;;;4.97;4.50;;;14.80;99.90;;;;;;5050107;28;20466;-70
2021/06/15 01:22:03;;;;;;;4.63;4.23;;;14.80;99.90;;;;;;5049246;28;20459;-70
2021/06/15 01:24:35;;;;;;;5.07;4.33;;;14.70;99.90;;;;;;5050151;28;20462;-70
2021/06/15 01:27:27;;;;;;;5.30;4.37;;;14.70;99.90;;;;;;5051483;28;20842;-70
2021/06/15 01:29:57;;;;;;;4.97;4.27;;;14.70;99.90;;;;;;5053645;28;20451;-70
2021/06/15 01:32:29;;;;;;;5.00;4.10;;;14.60;99.90;;;;;;5052793;28;20491;-70
2021/06/15 01:34:58;;;;;;;6.37;4.27;;;14.60;99.90;;;;;;5053364;28;20486;-70
2021/06/15 01:37:29;;;;;;;5.47;4.33;;;14.60;99.90;;;;;;5053414;28;20475;-70
2021/06/15 01:40:00;;;;;;;4.57;4.00;;;14.60;99.90;;;;;;5053245;28;20842;-70
2021/06/15 01:42:33;;;;;;;5.33;4.70;;;14.60;99.90;;;;;;5053162;28;20467;-70
2021/06/15 01:45:04;;;;;;;5.40;4.90;;;14.50;99.90;;;;;;5052862;28;20471;-70
2021/06/15 01:47:31;;;;;;;4.57;3.97;;;14.50;99.90;;;;;;5053359;28;20459;-70
2021/06/15 01:49:59;;;;;;;5.07;4.57;;;14.50;99.90;;;;;;5052850;28;20478;-71
2021/06/15 01:52:32;;;;;;;4.43;4.03;;;14.40;99.90;;;;;;5052873;28;20544;-70
2021/06/15 01:55:00;;;;;;;6.63;4.70;;;14.40;99.90;;;;;;5053038;28;20475;-70
2021/06/15 01:57:29;;;;;;;5.20;4.27;;;14.40;99.90;;;;;;5052804;28;20947;-70
2021/06/15 01:59:58;;;;;;;4.57;4.17;;;14.30;99.90;;;;;;5053076;28;20466;-70
2021/06/15 02:02:26;;;;;;;6.00;4.47;;;14.30;99.90;;;;;;5052327;28;20460;-70
2021/06/15 02:04:55;;;;;;;5.33;4.10;;;14.30;99.90;;;;;;5052842;28;20473;-70
2021/06/15 02:07:25;;;;;;;5.23;4.37;;;14.20;99.90;;;;;;5052578;28;20951;-70
2021/06/15 02:09:56;;;;;;;4.67;4.27;;;14.20;99.90;;;;;;5053096;28;20460;-70
2021/06/15 02:12:28;;;;;;;5.10;4.60;;;14.10;99.90;;;;;;5052433;28;20483;-70
2021/06/15 02:14:57;;;;;;;5.10;4.63;;;14.10;99.90;;;;;;5052346;28;20826;-70
2021/06/15 02:17:26;;;;;;;5.60;4.20;;;14.10;99.90;;;;;;5052860;28;20817;-70
2021/06/15 02:19:54;;;;;;;5.50;4.40;;;14.00;99.90;;;;;;5052267;28;20459;-70
2021/06/15 02:22:23;;;;;;;4.80;4.30;;;14.00;99.90;;;;;;5052244;28;20837;-70
2021/06/15 02:24:55;;;;;;;4.83;4.33;;;13.90;99.90;;;;;;5052257;28;20463;-70
2021/06/15 02:27:24;;;;;;;4.70;4.20;;;14.00;99.90;;;;;;5052364;28;20485;-70
2021/06/15 02:29:53;;;;;;;4.50;4.10;;;14.00;99.90;;;;;;5052523;28;20509;-70
2021/06/15 02:32:24;;;;;;;5.10;4.60;;;13.90;99.90;;;;;;5051582;28;20475;-70
2021/06/15 02:34:52;;;;;;;4.93;4.50;;;13.90;99.90;;;;;;5052369;28;20460;-70
2021/06/15 02:37:26;;;;;;;5.57;5.10;;;13.90;99.90;;;;;;5051803;28;20963;-70
2021/06/15 02:39:55;;;;;;;7.07;4.50;;;13.90;99.90;;;;;;5052071;28;20466;-70
2021/06/15 02:42:23;;;;;;;5.40;4.90;;;13.80;99.90;;;;;;5051586;28;20462;-70
2021/06/15 02:44:52;;;;;;;4.67;4.00;;;13.80;99.90;;;;;;5052023;28;20463;-70
2021/06/15 02:47:22;;;;;;;4.50;4.00;;;13.80;99.90;;;;;;5052020;28;20980;-70
2021/06/15 02:49:55;;;;;;;5.40;4.90;;;13.80;99.90;;;;;;5051763;28;20467;-70
2021/06/15 02:52:36;;;;;;;6.80;4.90;;;13.80;99.90;;;;;;5051664;28;20994;-70
2021/06/15 02:55:06;;;;;;;6.20;5.10;;;13.80;99.90;;;;;;5051466;28;20590;-70
2021/06/15 02:57:33;;;;;;;6.13;4.73;;;13.70;99.90;;;;;;5052193;28;20849;-70
2021/06/15 02:59:59;;;;;;;5.20;4.70;;;13.70;99.90;;;;;;5051661;28;20467;-70
2021/06/15 03:02:28;;;;;;;5.10;4.60;;;13.60;99.90;;;;;;5051561;28;20460;-70
2021/06/15 03:04:55;;;;;;;5.13;4.63;;;13.50;99.90;;;;;;5051592;28;20939;-70
2021/06/15 03:07:21;;;;;;;5.13;4.57;;;13.50;99.90;;;;;;5051287;28;20485;-70
2021/06/15 03:09:48;;;;;;;4.97;4.50;;;13.50;99.90;;;;;;5051815;28;20460;-70
2021/06/15 03:12:18;;;;;;;7.27;4.70;;;13.50;99.90;;;;;;5050842;28;20490;-70
2021/06/15 03:14:49;;;;;;;4.70;4.30;;;13.50;99.90;;;;;;5051552;28;20935;-70
2021/06/15 03:17:17;;;;;;;5.00;4.60;;;13.50;99.90;;;;;;5051416;28;20464;-70
2021/06/15 03:19:52;;;;;;;5.20;4.50;;;13.50;99.90;;;;;;5051252;28;20467;-70
2021/06/15 03:22:21;;;;;;;7.03;4.37;;;13.50;99.90;;;;;;5051071;28;20946;-70
2021/06/15 03:24:53;;;;;;;5.57;4.73;;;13.50;99.90;;;;;;5050967;28;20462;-70
2021/06/15 03:27:31;;;;;;;5.47;4.97;;;13.40;99.90;;;;;;5051362;28;20508;-70
2021/06/15 03:29:59;;;;;;;5.43;4.83;;;13.40;99.90;;;;;;5050732;28;21004;-71
2021/06/15 03:32:27;;;;;;;5.33;4.83;;;13.30;99.90;;;;;;5051019;28;20494;-71
2021/06/15 03:34:57;;;;;;;5.40;4.40;;;13.30;99.90;;;;;;5051027;28;20738;-71
2021/06/15 03:37:28;;;;;;;5.00;4.50;;;13.30;99.90;;;;;;5051751;28;20463;-71
2021/06/15 03:39:58;;;;;;;5.00;4.50;;;13.30;99.90;;;;;;5069492;28;20541;-72
2021/06/15 03:42:26;;;;;;;7.83;5.40;;;13.40;99.90;;;;;;5070435;28;20465;-71
2021/06/15 03:44:56;;;;;;;5.40;4.47;;;13.40;99.90;;;;;;5071238;28;20808;-72
2021/06/15 03:47:24;;;;;;;5.97;4.73;;;13.30;99.90;;;;;;5070816;28;20462;-71
2021/06/15 03:49:55;;;;;;;5.30;4.80;;;13.30;99.90;;;;;;5070107;28;20462;-71
2021/06/15 03:52:23;;;;;;;5.10;4.03;;;13.30;99.90;;;;;;5070590;28;20486;-71
2021/06/15 03:54:52;;;;;;;6.50;4.57;;;13.40;99.90;;;;;;5065632;28;20455;-70
2021/06/15 03:57:20;;;;;;;7.30;4.50;;;13.30;99.90;;;;;;5051171;28;20459;-70
2021/06/15 03:59:49;;;;;;;7.70;4.50;;;13.40;99.90;;;;;;5050705;28;20463;-70
2021/06/15 04:02:16;;;;;;;5.17;4.60;;;13.50;99.90;;;;;;5050439;28;20467;-70
2021/06/15 04:04:46;;;;;;;7.60;5.10;;;13.50;99.90;;;;;;5050647;28;20455;-70
2021/06/15 04:07:20;;;;;;;5.33;4.30;;;13.50;99.90;;;;;;5050827;28;20459;-70
2021/06/15 04:09:49;;;;;;;4.73;4.37;;;13.60;99.90;;;;;;5051779;28;20456;-70
2021/06/15 04:12:17;;;;;;;6.03;5.43;;;13.50;99.90;;;;;;5050608;28;20459;-71
2021/06/15 04:14:45;;;;;;;5.20;4.80;;;13.60;99.90;;;;;;5050691;28;20854;-70
2021/06/15 04:17:15;;;;;;;5.37;4.87;;;13.60;99.90;;;;;;5050134;28;20464;-70
2021/06/15 04:19:44;;;;;;;5.60;5.20;;;13.60;99.90;;;;;;5050736;28;20460;-71
2021/06/15 04:22:15;;;;;;;5.90;4.63;;;13.70;99.90;;;;;;5049712;28;21174;-70
2021/06/15 04:24:49;;;;;;;5.70;4.80;;;13.70;99.90;;;;;;5050282;28;20463;-71
2021/06/15 04:27:20;;;;;;;4.60;4.20;;;13.70;99.90;;;;;;5050340;28;20861;-71
2021/06/15 04:29:47;;;;;;;5.00;4.60;;;13.80;99.90;;;;;;5050214;28;20462;-71
2021/06/15 04:32:17;;;;;;;4.63;4.23;;;13.80;99.90;;;;;;5049810;28;20459;-71
2021/06/15 04:34:49;;;;;;;7.00;4.73;;;13.80;99.90;;;;;;5050040;28;20834;-71
2021/06/15 04:37:19;;;;;;;6.20;5.60;;;13.90;99.90;;;;;;5050344;28;20459;-71
2021/06/15 04:39:50;;;;;;;4.90;4.50;;;13.90;99.90;;;;;;5050107;28;21170;-71
2021/06/15 04:42:28;;;;;;;5.33;4.83;;;14.00;99.90;;;;;;5050147;28;20833;-71
2021/06/15 04:44:56;;;;;;;5.10;4.57;;;14.10;99.90;;;;;;5050235;28;20483;-71
2021/06/15 04:47:26;;;;;;;5.00;4.60;;;14.10;99.90;;;;;;5050020;28;20451;-71
2021/06/15 04:49:58;;;;;;;4.87;4.37;;;14.20;99.90;;;;;;5050270;28;20459;-70
2021/06/15 04:52:28;;;;;;;6.00;5.10;;;14.30;99.90;;;;;;5049533;28;20983;-71
2021/06/15 04:54:57;;;;;;;5.00;4.50;;;14.40;99.90;;;;;;5050058;28;20488;-70
2021/06/15 04:57:26;;;;;;;6.30;4.80;;;14.50;99.90;;;;;;5050010;28;20470;-70
2021/06/15 04:59:55;;;;;;;7.70;4.60;;;14.50;99.90;;;;;;5050100;28;20459;-71
2021/06/15 05:02:24;;;;;;;6.20;5.33;;;14.60;99.90;;;;;;5052635;28;20463;-70
2021/06/15 05:04:51;;;;;;;5.37;4.87;;;14.70;99.90;;;;;;5053551;28;20857;-70
2021/06/15 05:07:19;;;;;;;5.27;4.77;;;14.70;99.90;;;;;;5054049;28;20467;-71
2021/06/15 05:09:51;;;;;;;7.37;5.73;;;14.80;99.90;;;;;;5053647;28;20826;-70
2021/06/15 05:12:19;;;;;;;5.27;4.77;;;14.90;99.90;;;;;;5053641;28;20459;-70
2021/06/15 05:14:47;;;;;;;7.20;5.73;;;15.00;99.90;;;;;;5053537;28;20998;-71
2021/06/15 05:17:15;;;;;;;6.20;4.73;;;15.10;99.90;;;;;;5053596;28;20463;-70
2021/06/15 05:19:42;;;;;;;7.43;6.20;;;15.20;99.90;;;;;;5053768;28;20455;-70
2021/06/15 05:22:15;;;;;;;6.27;5.67;;;15.30;99.90;;;;;;5053067;28;20455;-70
2021/06/15 05:24:52;;;;;;;6.67;5.97;;;15.50;99.90;;;;;;5053785;28;20455;-70
2021/06/15 05:27:20;;;;;;;5.47;4.97;;;15.60;99.90;;;;;;5053359;28;20822;-70
2021/06/15 05:29:47;;;;;;;5.83;5.33;;;15.60;99.90;;;;;;5053705;28;20462;-70
2021/06/15 05:32:14;;;;;;;5.70;5.10;;;15.80;99.90;;;;;;5053049;28;20459;-70
2021/06/15 05:34:42;;;;;;;5.70;5.13;;;15.90;99.90;;;;;;5053106;28;20487;-71
2021/06/15 05:37:10;;;;;;;4.93;4.03;;;16.00;99.90;;;;;;5053347;28;20455;-71
2021/06/15 05:39:37;;;;;;;6.33;5.00;;;16.10;99.90;;;;;;5053068;28;20570;-71
2021/06/15 05:42:07;;;;;;;5.67;5.17;;;16.20;99.90;;;;;;5052959;28;20459;-71
2021/06/15 05:44:34;;;;;;;5.00;4.50;;;16.40;99.90;;;;;;5052890;28;20466;-71
2021/06/15 05:47:02;;;;;;;4.80;4.03;;;16.50;99.90;;;;;;5053084;28;20480;-71
2021/06/15 05:49:28;;;;;;;4.50;4.00;;;16.60;99.90;;;;;;5053153;28;20455;-71
2021/06/15 05:52:00;;;;;;;3.90;3.60;;;16.70;99.90;;;;;;5052510;28;21184;-71
2021/06/15 05:54:27;;;;;;;4.80;4.40;;;16.90;99.90;;;;;;5053207;28;20537;-71
2021/06/15 05:56:53;;;;;;;4.63;3.90;;;17.00;99.90;;;;;;5052219;28;20487;-71
2021/06/15 05:59:22;;;;;;;3.80;3.40;;;17.30;99.90;;;;;;5052575;28;20456;-71
2021/06/15 06:01:48;;;;;;;3.77;3.47;;;17.40;99.90;;;;;;5052228;28;20470;-71
2021/06/15 06:04:18;;;;;;;4.10;3.70;;;17.50;99.90;;;;;;5052825;28;20460;-71
2021/06/15 06:09:29;;;;;;;3.77;3.40;;;17.70;99.90;;;;;;5052926;28;20642;-71
2021/06/15 06:11:56;;;;;;;3.93;3.50;;;17.90;99.90;;;;;;5052438;28;20463;-71
2021/06/15 06:14:24;;;;;;;8.93;3.93;;;18.00;99.90;;;;;;5051320;28;20490;-71
2021/06/15 06:16:51;;;;;;;4.57;3.77;;;18.10;99.90;;;;;;5052667;28;21021;-71
2021/06/15 06:19:19;;;;;;;8.37;4.43;;;18.30;99.90;;;;;;5051262;28;20459;-71
2021/06/15 06:21:46;;;;;;;10.77;3.77;;;18.40;99.90;;;;;;5050958;28;20459;-71
2021/06/15 06:24:14;;;;;;;4.73;3.43;;;18.50;99.90;;;;;;5051485;28;21009;-71
2021/06/15 06:26:41;;;;;;;4.80;3.50;;;18.60;99.90;;;;;;5051891;28;20475;-71
2021/06/15 06:29:07;;;;;;;3.97;3.57;;;18.70;99.90;;;;;;5052285;28;20456;-71
2021/06/15 06:31:35;;;;;;;3.70;3.23;;;18.80;99.90;;;;;;5051952;28;20467;-71
2021/06/15 06:34:02;;;;;;;4.63;4.10;;;18.90;99.90;;;;;;5052457;28;20494;-71
2021/06/15 06:36:29;;;;;;;4.07;3.67;;;19.10;99.90;;;;;;5051852;28;20486;-71
2021/06/15 06:38:56;;;;;;;3.97;3.47;;;19.40;99.90;;;;;;5052365;28;20471;-71
2021/06/15 06:41:23;;;;;;;6.03;3.60;;;19.50;99.90;;;;;;5051591;28;20832;-71
2021/06/15 06:43:50;;;;;;;3.10;2.80;;;19.70;99.90;;;;;;5052061;28;20462;-69
2021/06/15 06:46:17;;;;;;;5.70;3.73;;;19.80;99.90;;;;;;5052024;28;20491;-69
2021/06/15 06:48:45;;;;;;;4.07;3.77;;;19.90;99.90;;;;;;5051649;28;20455;-70
2021/06/15 06:51:12;;;;;;;4.40;3.70;;;20.00;99.90;;;;;;5051610;28;20835;-67
2021/06/15 06:53:38;;;;;;;3.70;3.27;;;20.10;99.90;;;;;;5051691;28;20479;-69
2021/06/15 06:56:06;;;;;;;4.60;3.20;;;20.30;99.90;;;;;;5052035;28;20870;-70
2021/06/15 06:58:32;;;;;;;4.20;3.80;;;20.40;99.90;;;;;;5051733;28;20463;-69
2021/06/15 07:00:59;;;;;;;4.77;3.70;;;20.40;99.90;;;;;;5051263;28;20464;-70
2021/06/15 07:03:26;;;;;;;3.77;3.37;;;20.50;99.90;;;;;;5051652;28;20452;-70
2021/06/15 07:05:54;;;;;;;6.97;4.20;;;20.60;99.90;;;;;;5051261;28;20490;-69
2021/06/15 07:08:21;;;;;;;7.57;3.60;;;20.70;99.90;;;;;;5051577;28;20841;-70
2021/06/15 07:10:48;;;;;;;6.23;3.93;;;20.80;99.90;;;;;;5051221;28;20478;-69
2021/06/15 07:13:15;;;;;;;8.90;4.20;;;20.90;99.90;;;;;;5051239;28;21096;-70
2021/06/15 07:15:42;;;;;;;3.67;3.27;;;21.10;99.90;;;;;;5053848;28;20483;-70
2021/06/15 07:18:08;;;;;;;6.70;3.60;;;21.10;99.90;;;;;;5070408;28;20465;-70
2021/06/15 07:20:35;;;;;;;3.87;3.47;;;21.20;99.90;;;;;;5082233;28;20848;-70
2021/06/15 07:23:03;;;;;;;5.00;3.60;;;21.30;99.90;;;;;;5083005;28;21006;-70
2021/06/15 07:25:30;;;;;;;3.97;3.67;;;21.40;99.90;;;;;;5069032;28;20467;-70
2021/06/15 07:27:58;;;;;;;5.63;3.90;;;21.50;99.90;;;;;;5072188;28;20976;-70
2021/06/15 07:30:26;;;;;;;5.50;3.80;;;21.60;99.90;;;;;;5086190;28;20462;-70
2021/06/15 07:32:56;;;;;;;11.20;4.33;;;21.70;99.90;;;;;;5089268;28;20468;-69
2021/06/15 07:35:23;;;;;;;6.07;4.00;;;21.80;99.90;;;;;;5088962;28;20497;-70
2021/06/15 07:37:49;;;;;;;5.30;4.03;;;21.90;99.90;;;;;;5089618;28;20840;-70
2021/06/15 07:40:22;;;;;;;12.23;3.90;;;22.00;99.90;;;;;;5089256;28;20454;-70
2021/06/15 07:42:49;;;;;;;7.93;3.80;;;22.00;99.90;;;;;;5090339;28;20468;-70
2021/06/15 07:45:16;;;;;;;7.83;4.20;;;22.10;99.90;;;;;;5089391;28;20484;-70
2021/06/15 07:47:43;;;;;;;9.53;4.17;;;22.20;99.90;;;;;;5088972;28;20463;-69
2021/06/15 07:50:10;;;;;;;7.83;4.17;;;22.30;99.90;;;;;;5089257;28;20465;-69
2021/06/15 07:52:37;;;;;;;9.90;4.50;;;22.30;99.90;;;;;;5061557;28;20462;-68
2021/06/15 07:55:05;;;;;;;6.67;3.80;;;22.50;99.90;;;;;;5067829;28;20505;-68
2021/06/15 07:57:34;;;;;;;7.80;4.20;;;22.50;99.90;;;;;;5068071;28;20858;-68
2021/06/15 08:00:01;;;;;;;18.13;4.90;;;22.50;99.90;;;;;;5067864;28;20458;-68
2021/06/15 08:02:28;;;;;;;12.53;4.50;;;22.60;99.90;;;;;;5068016;28;20466;-68
2021/06/15 08:04:56;;;;;;;4.00;3.57;;;22.70;99.90;;;;;;5067575;28;20546;-67
2021/06/15 08:07:23;;;;;;;6.53;3.27;;;22.80;99.90;;;;;;5068235;28;20467;-67
2021/06/15 08:09:50;;;;;;;4.27;3.40;;;22.90;99.90;;;;;;5068107;28;20458;-69
2021/06/15 08:12:17;;;;;;;5.20;3.80;;;23.00;99.90;;;;;;5066960;28;20470;-69
2021/06/15 08:14:45;;;;;;;8.30;3.60;;;23.10;99.90;;;;;;5067815;28;20864;-69
2021/06/15 08:17:12;;;;;;;8.57;3.70;;;23.10;99.90;;;;;;5067394;28;20455;-69
2021/06/15 08:19:39;;;;;;;3.87;3.33;;;23.20;99.90;;;;;;5067974;28;20589;-69
2021/06/15 08:22:06;;;;;;;4.83;4.10;;;23.30;99.90;;;;;;5067621;28;20466;-69
2021/06/15 08:24:33;;;;;;;7.47;3.33;;;23.40;99.90;;;;;;5067340;28;20468;-69
2021/06/15 08:27:00;;;;;;;4.73;3.67;;;23.50;99.90;;;;;;5067584;28;20469;-69
2021/06/15 08:29:27;;;;;;;6.23;4.00;;;23.60;99.90;;;;;;5067276;28;20477;-69
2021/06/15 08:31:55;;;;;;;3.80;3.50;;;23.70;99.90;;;;;;5067634;28;20467;-71
2021/06/15 08:34:22;;;;;;;4.50;3.30;;;23.80;99.90;;;;;;5067191;28;21004;-72
2021/06/15 08:36:49;;;;;;;9.70;4.00;;;24.00;99.90;;;;;;5069111;28;20481;-70
2021/06/15 08:39:16;;;;;;;5.73;3.63;;;24.00;99.90;;;;;;5071746;28;20462;-69
2021/06/15 08:41:44;;;;;;;5.50;4.13;;;24.00;99.90;;;;;;5071400;28;20548;-69
2021/06/15 08:44:11;;;;;;;4.47;3.30;;;24.00;99.90;;;;;;5071538;28;20483;-69
2021/06/15 08:46:39;;;;;;;4.77;3.43;;;24.00;99.90;;;;;;5072098;28;20569;-69
2021/06/15 08:49:08;;;;;;;7.33;3.60;;;24.10;99.90;;;;;;5071493;28;20966;-70
2021/06/15 08:51:36;;;;;;;7.53;3.97;;;24.30;99.90;;;;;;5071556;28;20458;-70
2021/06/15 08:54:07;;;;;;;4.00;3.70;;;24.30;99.90;;;;;;5071049;28;20567;-70
2021/06/15 08:56:35;;;;;;;4.10;3.67;;;24.40;99.90;;;;;;5071376;28;21020;-70
2021/06/15 08:59:20;;;;;;;4.47;3.40;;;24.40;99.90;;;;;;5071207;28;20876;-69
2021/06/15 09:01:49;;;;;;;3.20;2.90;;;24.50;99.90;;;;;;5071055;28;21034;-71
2021/06/15 09:04:17;;;;;;;4.27;3.13;;;24.60;99.90;;;;;;5071100;28;20815;-72
2021/06/15 09:06:44;;;;;;;5.33;3.80;;;24.70;99.90;;;;;;5071043;28;20882;-72
2021/06/15 09:09:11;;;;;;;3.50;3.20;;;24.70;99.90;;;;;;5071086;28;20462;-72
2021/06/15 09:11:49;;;;;;;4.30;3.60;;;24.80;99.90;;;;;;5070456;28;20466;-71
2021/06/15 09:14:17;;;;;;;5.13;3.90;;;24.90;99.90;;;;;;5070691;28;20482;-72
2021/06/15 09:16:46;;;;;;;6.23;3.30;;;24.90;99.90;;;;;;5070558;28;20493;-72
2021/06/15 09:19:21;;;;;;;7.50;3.93;;;24.90;99.90;;;;;;5070627;28;20458;-69
2021/06/15 09:21:49;;;;;;;5.47;4.20;;;25.00;99.90;;;;;;5070621;28;20511;-69
2021/06/15 09:24:20;;;;;;;18.20;11.43;;;25.10;99.90;;;;;;5070275;28;20871;-69
2021/06/15 09:27:02;;;;;;;18.73;10.77;;;25.10;99.90;;;;;;5070880;28;20570;-69
2021/06/15 09:29:38;;;;;;;12.03;7.53;;;25.20;99.90;;;;;;5070430;28;21231;-69
2021/06/15 09:32:06;;;;;;;15.60;10.43;;;25.20;99.90;;;;;;5070773;28;20466;-69
2021/06/15 09:34:34;;;;;;;13.87;7.30;;;25.30;99.90;;;;;;5069917;28;20486;-69
2021/06/15 09:37:04;;;;;;;10.13;4.73;;;25.40;99.90;;;;;;5070410;28;20962;-69
2021/06/15 09:39:32;;;;;;;12.17;4.63;;;25.40;99.90;;;;;;5070169;28;20462;-69
2021/06/15 09:41:59;;;;;;;11.93;4.80;;;25.60;99.90;;;;;;5069369;28;20462;-69
2021/06/15 09:44:29;;;;;;;5.57;3.77;;;25.70;99.90;;;;;;5070310;28;20467;-69
2021/06/15 09:46:57;;;;;;;9.00;4.63;;;25.70;99.90;;;;;;5069794;28;20486;-69
2021/06/15 09:49:31;;;;;;;7.57;4.07;;;25.80;99.90;;;;;;5070395;28;20959;-69
2021/06/15 09:52:18;;;;;;;6.87;5.10;;;25.90;99.90;;;;;;5069883;28;20462;-69
2021/06/15 09:54:47;;;;;;;6.13;4.60;;;25.80;99.90;;;;;;5069860;28;20564;-72
2021/06/15 09:57:21;;;;;;;4.03;3.53;;;25.90;99.90;;;;;;5070088;28;20473;-70
2021/06/15 10:00:11;;;;;;;3.90;3.60;;;25.90;99.90;;;;;;5069583;28;20465;-69
2021/06/15 10:02:49;;;;;;;5.60;4.47;;;25.90;99.90;;;;;;5062254;28;20469;-70
2021/06/15 10:05:30;;;;;;;8.10;4.30;;;26.00;99.90;;;;;;5054110;28;20486;-69
2021/06/15 10:08:00;;;;;;;6.67;4.30;;;26.10;99.90;;;;;;5058227;28;20836;-69
2021/06/15 10:10:32;;;;;;;6.00;4.17;;;26.10;99.90;;;;;;5059192;28;20455;-70
2021/06/15 10:12:59;;;;;;;8.97;3.97;;;26.20;99.90;;;;;;5058768;28;20460;-69
2021/06/15 10:15:28;;;;;;;6.80;4.00;;;26.30;99.90;;;;;;5058592;28;20485;-69
2021/06/15 10:17:55;;;;;;;5.33;3.40;;;26.40;99.90;;;;;;5060008;28;20862;-70
2021/06/15 10:20:26;;;;;;;5.33;3.53;;;26.50;99.90;;;;;;5058998;28;20477;-70
2021/06/15 10:22:54;;;;;;;3.43;3.13;;;26.40;99.90;;;;;;5057731;28;20535;-72
2021/06/15 10:25:24;;;;;;;5.17;3.13;;;26.50;99.90;;;;;;5059129;28;20505;-70
2021/06/15 10:27:52;;;;;;;5.43;3.63;;;26.50;99.90;;;;;;5059748;28;21505;-70
2021/06/15 10:30:27;;;;;;;5.50;3.23;;;26.60;99.60;;;;;;5057814;28;20963;-70
2021/06/15 10:32:57;;;;;;;3.30;3.00;;;26.70;99.90;;;;;;5057698;28;20460;-70
2021/06/15 10:35:36;;;;;;;4.77;3.27;;;26.70;99.90;;;;;;5058368;28;20498;-70
2021/06/15 10:38:03;;;;;;;3.60;3.00;;;26.70;99.90;;;;;;5058811;28;21017;-70
2021/06/15 10:40:39;;;;;;;4.43;3.20;;;26.80;99.90;;;;;;5057444;28;21164;-72
2021/06/15 10:43:17;;;;;;;4.90;3.00;;;26.80;99.80;;;;;;5058722;28;20471;-72
2021/06/15 10:45:46;;;;;;;7.27;3.70;;;26.90;99.90;;;;;;5056108;28;20482;-70
2021/06/15 10:48:40;;;;;;;3.90;3.27;;;27.00;99.90;;;;;;5057198;28;21026;-70
2021/06/15 10:51:20;;;;;;;3.20;2.90;;;27.10;99.70;;;;;;5058323;28;20559;-70
2021/06/15 10:53:47;;;;;;;3.47;3.17;;;27.10;98.90;;;;;;5058520;28;20475;-70
2021/06/15 10:56:17;;;;;;;4.43;3.40;;;27.10;99.90;;;;;;5056938;28;20858;-70
2021/06/15 10:59:08;;;;;;;4.13;2.80;;;27.20;99.30;;;;;;5057889;28;20463;-70
2021/06/15 11:01:37;;;;;;;5.57;2.97;;;27.20;97.20;;;;;;5059814;28;20475;-71
2021/06/15 11:04:06;;;;;;;3.40;3.10;;;27.20;96.40;;;;;;5058526;28;20464;-70
2021/06/15 11:06:52;;;;;;;3.10;2.80;;;27.30;97.50;;;;;;5057051;28;20489;-71
2021/06/15 11:09:30;;;;;;;4.60;4.07;;;27.40;96.60;;;;;;5059514;28;20475;-70
2021/06/15 11:12:23;;;;;;;3.90;3.47;;;27.40;99.00;;;;;;5059731;28;20455;-70
2021/06/15 11:15:22;;;;;;;5.10;3.20;;;27.40;98.00;;;;;;5057300;28;20480;-70
2021/06/15 11:17:55;;;;;;;6.50;3.83;;;27.60;98.50;;;;;;5027278;28;20471;-70
2021/06/15 11:20:30;;;;;;;5.90;3.10;;;27.60;99.70;;;;;;5060359;28;20539;-70
2021/06/15 11:23:18;;;;;;;3.13;2.83;;;27.70;96.90;;;;;;5057075;28;20551;-70
2021/06/15 11:25:47;;;;;;;4.80;3.60;;;27.60;97.00;;;;;;5063488;28;20521;-70
2021/06/15 11:28:38;;;;;;;4.13;2.90;;;27.70;96.20;;;;;;5061677;28;20976;-70
2021/06/15 11:31:41;;;;;;;4.40;3.20;;;27.90;96.10;;;;;;5070807;28;20483;-70
2021/06/15 11:34:15;;;;;;;3.80;2.80;;;27.90;96.00;;;;;;5070651;28;20472;-69
2021/06/15 11:36:44;;;;;;;5.07;3.20;;;28.00;96.60;;;;;;5069854;28;20576;-70
2021/06/15 11:39:30;;;;;;;6.10;3.00;;;28.10;98.50;;;;;;5071086;28;20913;-70
2021/06/15 11:42:19;;;;;;;7.20;3.30;;;28.20;98.90;;;;;;5070137;28;20456;-70
2021/06/15 11:44:59;;;;;;;3.13;2.60;;;28.20;95.60;;;;;;5070891;28;20559;-70
2021/06/15 11:47:29;;;;;;;4.33;2.80;;;28.20;94.80;;;;;;5070260;28;20460;-70
2021/06/15 11:50:13;;;;;;;5.50;3.20;;;28.20;95.70;;;;;;5070675;28;20462;-70
2021/06/15 11:52:42;;;;;;;3.87;2.83;;;28.40;96.20;;;;;;5069499;28;20464;-70
2021/06/15 11:55:11;;;;;;;4.10;2.70;;;28.40;95.70;;;;;;5061019;28;20491;-70
2021/06/15 11:57:38;;;;;;;3.80;2.80;;;28.60;95.60;;;;;;5066158;28;20472;-70
2021/06/15 12:00:12;;;;;;;5.50;3.37;;;28.50;94.50;;;;;;5070627;28;20466;-70
2021/06/15 12:02:39;;;;;;;3.93;3.00;;;28.30;95.40;;;;;;5070077;28;20829;-70
2021/06/15 12:05:09;;;;;;;3.20;2.90;;;28.20;94.80;;;;;;5069869;28;20986;-70
2021/06/15 12:07:38;;;;;;;3.40;3.10;;;28.20;90.00;;;;;;5070304;28;20556;-69
2021/06/15 12:10:13;;;;;;;4.33;2.87;;;28.00;90.50;;;;;;5069969;28;20828;-69
2021/06/15 12:13:00;;;;;;;5.03;3.47;;;28.00;94.40;;;;;;5069210;28;20465;-70
2021/06/15 12:15:35;;;;;;;3.03;2.80;;;28.10;96.80;;;;;;5069963;28;20512;-70
2021/06/15 12:18:02;;;;;;;4.90;3.00;;;28.10;95.30;;;;;;5070354;28;20453;-69
2021/06/15 12:20:32;;;;;;;3.73;3.40;;;28.30;94.40;;;;;;5070321;28;20467;-69
2021/06/15 12:23:00;;;;;;;5.50;3.23;;;28.40;96.20;;;;;;5069424;28;20521;-69
2021/06/15 12:25:31;;;;;;;3.23;2.97;;;28.60;94.60;;;;;;5070317;28;20471;-69
2021/06/15 12:28:12;;;;;;;4.27;3.00;;;28.80;94.80;;;;;;5069650;28;20481;-69
2021/06/15 12:30:40;;;;;;;3.37;3.07;;;29.00;93.50;;;;;;5070133;28;20906;-69
2021/06/15 12:33:08;;;;;;;2.90;2.60;;;29.10;93.70;;;;;;5069681;28;20460;-69
2021/06/15 12:35:36;;;;;;;3.40;3.10;;;29.20;94.40;;;;;;5069968;28;20487;-69
2021/06/15 12:38:10;;;;;;;3.63;2.90;;;29.30;94.10;;;;;;5070183;28;20556;-69
2021/06/15 12:40:38;;;;;;;3.80;2.90;;;29.40;93.70;;;;;;5069646;28;20466;-69
2021/06/15 12:43:05;;;;;;;3.10;2.80;;;29.30;93.10;;;;;;5069945;28;20457;-67
2021/06/15 12:45:33;;;;;;;3.40;3.10;;;29.40;93.70;;;;;;5069989;28;20475;-70
2021/06/15 12:48:02;;;;;;;3.53;2.80;;;29.30;94.40;;;;;;5069915;28;20534;-67
2021/06/15 12:50:30;;;;;;;3.60;2.63;;;29.20;92.70;;;;;;5069675;28;20962;-68
2021/06/15 12:53:07;;;;;;;3.60;2.50;;;29.10;93.00;;;;;;5069400;28;20463;-68
2021/06/15 12:55:42;;;;;;;2.57;2.37;;;29.10;93.90;;;;;;5069904;28;20578;-68
2021/06/15 12:58:11;;;;;;;7.27;2.53;;;29.10;95.60;;;;;;5069692;28;20467;-67
2021/06/15 13:00:42;;;;;;;4.37;2.87;;;29.20;92.30;;;;;;5070160;28;20483;-67
2021/06/15 13:03:12;;;;;;;2.63;2.43;;;29.30;91.50;;;;;;5069728;28;20479;-67
2021/06/15 13:05:40;;;;;;;3.53;2.30;;;29.20;92.30;;;;;;5069642;28;20868;-67